Baltasound, United Kingdom
Current Conditions -  °F | °C
As of 8:50 AM on Monday 22 Dec 2014 (Local Time) from EGPM Reporting Station
Rain Showers Rain Showers  
Wind Chill: 32°   Ceiling: Unl
Heat Index: 43°   Visibility: 6mi
Dew Point: 37°   Wind: 30mph
Humidity: 81%   Direction: 250°WSW
Pressure: 29.15"   Gusts: 41mph
Location:  60.75°N, 0.85°W
Report Text: EGPM 220850Z 25026G36KT 9999 SHRA FEW015 SCT020CB 06/03 Q0987 BECMG NSW
Loading
Personal Weather Stations






























Interactive Weather Map New forecast layout! Learn more

10-Day Weather Forecast

Advertisements
Track Severe Weather on mobile